Time;durP1;ratioP1;P1;durP2;ratioP2;P2;SDS_P1;SDS_P2;PMS_P1;PMS_P2;Temp;Humidity;BMP_temperature;BMP_pressure;BME280_temperature;BME280_humidity;BME280_pressure;Samples;Min_cycle;Max_cycle;Signal;HPM_P1;HPM_P2
2022/12/19 00:00:21;;;;;;;;;;;;;;;;;;1867928;29;7010;-63
2022/12/19 00:01:25;;;;;;;;;;;;;;;;;;1867732;29;7067;-63
2022/12/19 00:02:23;;;;;;;;;;;;;;;;;;1867979;29;7078;-62
2022/12/19 00:03:20;;;;;;;;;;;;;;;;;;1867814;29;7006;-61
2022/12/19 00:04:19;;;;;;;;;;;;;;;;;;1868030;29;7042;-63
2022/12/19 00:05:17;;;;;;;;;;;;;;;;;;1867870;29;7097;-63
2022/12/19 00:06:16;;;;;;;;;;;;;;;;;;1868129;29;7089;-61
2022/12/19 00:07:13;;;;;;;;;;;;;;;;;;1868579;29;7010;-63
2022/12/19 00:08:15;;;;;;;;;;;;;;;;;;1868046;29;7006;-63
2022/12/19 00:09:14;;;;;;;;;;;;;;;;;;1862448;29;7072;-62
2022/12/19 00:10:11;;;;;;;;;;;;;;;;;;1861004;29;7767;-61
2022/12/19 00:11:10;;;;;;;;;;;;;;;;;;1869708;29;7155;-62
2022/12/19 00:12:07;;;;;;;;;;;;;;;;;;1867907;29;7069;-63
2022/12/19 00:13:08;;;;;;;;;;;;;;;;;;1868039;29;7069;-62
2022/12/19 00:14:06;;;;;;;;;;;;;;;;;;1867997;29;7010;-63
2022/12/19 00:15:03;;;;;;;;;;;;;;;;;;1868477;29;7152;-63
2022/12/19 00:16:05;;;;;;;;;;;;;;;;;;1867760;29;7022;-61
2022/12/19 00:17:03;;;;;;;;;;;;;;;;;;1866273;29;7512;-63
2022/12/19 00:18:00;;;;;;;;;;;;;;;;;;1866686;29;8115;-62
2022/12/19 00:18:59;;;;;;;;;;;;;;;;;;1867501;29;7039;-62
2022/12/19 00:19:56;;;;;;;;;;;;;;;;;;1867952;29;7089;-63
2022/12/19 00:21:02;;;;;;;;;;;;;;;;;;1867503;29;7098;-63
2022/12/19 00:21:59;;;;;;;;;;;;;;;;;;1867856;29;7093;-62
2022/12/19 00:22:56;;;;;;;;;;;;;;;;;;1868229;29;7034;-62
2022/12/19 00:23:54;;;;;;;;;;;;;;;;;;1874246;29;8092;-63
2022/12/19 00:24:51;;;;;;;;;;;;;;;;;;1874396;29;7030;-61
2022/12/19 00:25:49;;;;;;;;;;;;;;;;;;1868296;29;7026;-63
2022/12/19 00:26:46;;;;;;;;;;;;;;;;;;1867495;29;8502;-62
2022/12/19 00:27:44;;;;;;;;;;;;;;;;;;1867611;29;7136;-62
2022/12/19 00:28:43;;;;;;;;;;;;;;;;;;1867894;29;7002;-62
2022/12/19 00:29:40;;;;;;;;;;;;;;;;;;1868007;29;8036;-63
2022/12/19 00:30:37;;;;;;;;;;;;;;;;;;1868146;29;8033;-63
2022/12/19 00:31:35;;;;;;;;;;;;;;;;;;1866470;29;7018;-61
2022/12/19 00:32:33;;;;;;;;;;;;;;;;;;1868001;29;7038;-63
2022/12/19 00:33:30;;;;;;;;;;;;;;;;;;1867382;29;7046;-61
2022/12/19 00:34:29;;;;;;;;;;;;;;;;;;1867693;29;7190;-62
2022/12/19 00:35:27;;;;;;;;;;;;;;;;;;1867555;29;7002;-63
2022/12/19 00:36:26;;;;;;;;;;;;;;;;;;1867618;29;7003;-62
2022/12/19 00:37:24;;;;;;;;;;;;;;;;;;1868117;29;7035;-62
2022/12/19 00:38:21;;;;;;;;;;;;;;;;;;1867526;29;7014;-63
2022/12/19 00:39:18;;;;;;;;;;;;;;;;;;1867596;29;7093;-62
2022/12/19 00:40:16;;;;;;;;;;;;;;;;;;1867193;29;7312;-62
2022/12/19 00:41:15;;;;;;;;;;;;;;;;;;1874697;29;7204;-62
2022/12/19 00:42:13;;;;;;;;;;;;;;;;;;1874128;29;7031;-63
2022/12/19 00:43:10;;;;;;;;;;;;;;;;;;1868219;29;7313;-62
2022/12/19 00:44:12;;;;;;;;;;;;;;;;;;1867859;29;7388;-63
2022/12/19 00:45:10;;;;;;;;;;;;;;;;;;1868435;29;7093;-61
2022/12/19 00:46:09;;;;;;;;;;;;;;;;;;1868750;29;7014;-62
2022/12/19 00:47:06;;;;;;;;;;;;;;;;;;1868909;29;7097;-61
2022/12/19 00:48:04;;;;;;;;;;;;;;;;;;1869081;29;7040;-63
2022/12/19 00:49:03;;;;;;;;;;;;;;;;;;1869044;29;7006;-62
2022/12/19 00:50:01;;;;;;;;;;;;;;;;;;1868704;29;7093;-62
2022/12/19 00:51:03;;;;;;;;;;;;;;;;;;1869334;29;7097;-63
2022/12/19 00:52:03;;;;;;;;;;;;;;;;;;1869515;29;7013;-62
2022/12/19 00:53:00;;;;;;;;;;;;;;;;;;1877168;28;8571;-63
2022/12/19 00:54:00;;;;;;;;;;;;;;;;;;1883078;28;7148;-61
2022/12/19 00:54:59;;;;;;;;;;;;;;;;;;1883339;28;7014;-61
2022/12/19 00:56:03;;;;;;;;;;;;;;;;;;1883323;28;7117;-63
2022/12/19 00:57:00;;;;;;;;;;;;;;;;;;1883486;28;7046;-63
2022/12/19 00:57:58;;;;;;;;;;;;;;;;;;1883712;28;8389;-62
2022/12/19 00:58:57;;;;;;;;;;;;;;;;;;1883665;28;7049;-62
2022/12/19 00:59:54;;;;;;;;;;;;;;;;;;1883349;28;7314;-63
2022/12/19 01:00:51;;;;;;;;;;;;;;;;;;1883363;28;8048;-63
2022/12/19 01:01:49;;;;;;;;;;;;;;;;;;1883176;28;7114;-63
2022/12/19 01:02:46;;;;;;;;;;;;;;;;;;1883082;28;8380;-61
2022/12/19 01:03:44;;;;;;;;;;;;;;;;;;1883513;28;7110;-61
2022/12/19 01:05:02;;;;;;;;;;;;;;;;;;1883265;28;7066;-61
2022/12/19 01:06:00;;;;;;;;;;;;;;;;;;1883144;28;7038;-61
2022/12/19 01:06:58;;;;;;;;;;;;;;;;;;1883137;28;7093;-62
2022/12/19 01:07:59;;;;;;;;;;;;;;;;;;1883670;28;7014;-61
2022/12/19 01:08:56;;;;;;;;;;;;;;;;;;1883913;28;7093;-62
2022/12/19 01:09:54;;;;;;;;;;;;;;;;;;1883478;28;7135;-62
2022/12/19 01:10:51;;;;;;;;;;;;;;;;;;1883624;28;7043;-63
2022/12/19 01:13:04;;;;;;;;;;;;;;;;;;1883836;28;7042;-63
2022/12/19 01:14:02;;;;;;;;;;;;;;;;;;1883200;28;7046;-62
2022/12/19 01:14:59;;;;;;;;;;;;;;;;;;1882776;28;7005;-63
2022/12/19 01:16:05;;;;;;;;;;;;;;;;;;1883203;28;7005;-63
2022/12/19 01:17:03;;;;;;;;;;;;;;;;;;1889974;28;7006;-63
2022/12/19 01:18:00;;;;;;;;;;;;;;;;;;1885097;28;8005;-62
2022/12/19 01:18:58;;;;;;;;;;;;;;;;;;1883314;28;7093;-61
2022/12/19 01:19:58;;;;;;;;;;;;;;;;;;1883319;28;7038;-62
2022/12/19 01:20:58;;;;;;;;;;;;;;;;;;1883838;28;7172;-62
2022/12/19 01:21:56;;;;;;;;;;;;;;;;;;1883093;28;7084;-62
2022/12/19 01:22:54;;;;;;;;;;;;;;;;;;1883136;28;8167;-63
2022/12/19 01:23:51;;;;;;;;;;;;;;;;;;1882939;28;7009;-63
2022/12/19 01:24:49;;;;;;;;;;;;;;;;;;1883338;28;7005;-63
2022/12/19 01:25:51;;;;;;;;;;;;;;;;;;1883601;28;7014;-63
2022/12/19 01:26:48;;;;;;;;;;;;;;;;;;1882758;28;7117;-62
2022/12/19 01:27:45;;;;;;;;;;;;;;;;;;1883014;28;7124;-61
2022/12/19 01:28:43;;;;;;;;;;;;;;;;;;1882648;28;7092;-61
2022/12/19 01:29:40;;;;;;;;;;;;;;;;;;1882874;28;7373;-64
2022/12/19 01:30:49;;;;;;;;;;;;;;;;;;1882799;28;8039;-62
2022/12/19 01:31:46;;;;;;;;;;;;;;;;;;1882697;28;7097;-62
2022/12/19 01:32:44;;;;;;;;;;;;;;;;;;1883639;28;7042;-64
2022/12/19 01:33:41;;;;;;;;;;;;;;;;;;1883111;28;7125;-63
2022/12/19 01:34:41;;;;;;;;;;;;;;;;;;1882953;28;7117;-63
2022/12/19 01:35:39;;;;;;;;;;;;;;;;;;1886810;28;7150;-62
2022/12/19 01:36:36;;;;;;;;;;;;;;;;;;1890458;28;7017;-64
2022/12/19 01:37:36;;;;;;;;;;;;;;;;;;1882110;28;7097;-63
2022/12/19 01:38:35;;;;;;;;;;;;;;;;;;1883070;28;7364;-63
2022/12/19 01:39:32;;;;;;;;;;;;;;;;;;1882914;28;7034;-63
2022/12/19 01:40:33;;;;;;;;;;;;;;;;;;1883333;28;7348;-63
2022/12/19 01:41:30;;;;;;;;;;;;;;;;;;1883249;28;7309;-61
2022/12/19 01:42:33;;;;;;;;;;;;;;;;;;1882995;28;7009;-63
2022/12/19 01:43:32;;;;;;;;;;;;;;;;;;1882424;28;7110;-63
2022/12/19 01:44:30;;;;;;;;;;;;;;;;;;1883388;28;7006;-63
2022/12/19 01:45:31;;;;;;;;;;;;;;;;;;1883423;28;7377;-63
2022/12/19 01:46:35;;;;;;;;;;;;;;;;;;1882987;28;8146;-64
2022/12/19 01:47:38;;;;;;;;;;;;;;;;;;1883618;28;7010;-63
2022/12/19 01:48:38;;;;;;;;;;;;;;;;;;1883251;28;7234;-63
2022/12/19 01:49:36;;;;;;;;;;;;;;;;;;1883197;28;7050;-63
2022/12/19 01:50:33;;;;;;;;;;;;;;;;;;1883293;28;7305;-63
2022/12/19 01:51:43;;;;;;;;;;;;;;;;;;1874956;28;7173;-63
2022/12/19 01:52:41;;;;;;;;;;;;;;;;;;1875331;28;7006;-63
2022/12/19 01:53:45;;;;;;;;;;;;;;;;;;1883120;28;7384;-63
2022/12/19 01:54:46;;;;;;;;;;;;;;;;;;1882602;28;7192;-62
2022/12/19 01:55:44;;;;;;;;;;;;;;;;;;1882336;28;7129;-64
2022/12/19 01:56:45;;;;;;;;;;;;;;;;;;1882086;28;8008;-62
2022/12/19 01:57:42;;;;;;;;;;;;;;;;;;1881872;28;7006;-62
2022/12/19 01:58:45;;;;;;;;;;;;;;;;;;1883140;28;7009;-63
2022/12/19 01:59:46;;;;;;;;;;;;;;;;;;1882791;28;7217;-63
2022/12/19 02:00:43;;;;;;;;;;;;;;;;;;1882405;28;7078;-64
2022/12/19 02:01:42;;;;;;;;;;;;;;;;;;1882199;28;7210;-62
2022/12/19 02:02:55;;;;;;;;;;;;;;;;;;1883158;28;7088;-64
2022/12/19 02:03:55;;;;;;;;;;;;;;;;;;1882239;28;8040;-63
2022/12/19 02:04:52;;;;;;;;;;;;;;;;;;1883184;28;8079;-61
2022/12/19 02:05:51;;;;;;;;;;;;;;;;;;1883362;28;7042;-62
2022/12/19 02:06:50;;;;;;;;;;;;;;;;;;1882146;28;7046;-62
2022/12/19 02:07:49;;;;;;;;;;;;;;;;;;1882737;28;7093;-63
2022/12/19 02:08:47;;;;;;;;;;;;;;;;;;1875441;28;7125;-62
2022/12/19 02:09:47;;;;;;;;;;;;;;;;;;1874966;28;7046;-63
2022/12/19 02:10:52;;;;;;;;;;;;;;;;;;1882791;28;7006;-63
2022/12/19 02:11:51;;;;;;;;;;;;;;;;;;1882444;28;7014;-63
2022/12/19 02:12:48;;;;;;;;;;;;;;;;;;1882973;28;7005;-64
2022/12/19 02:13:46;;;;;;;;;;;;;;;;;;1882960;28;7124;-61
2022/12/19 02:14:44;;;;;;;;;;;;;;;;;;1883052;28;8011;-64
2022/12/19 02:15:54;;;;;;;;;;;;;;;;;;1882811;28;7047;-62
2022/12/19 02:16:52;;;;;;;;;;;;;;;;;;1882188;28;7276;-64
2022/12/19 02:18:04;;;;;;;;;;;;;;;;;;1882877;28;7092;-63
2022/12/19 02:19:20;;;;;;;;;;;;;;;;;;1882856;28;7009;-61
2022/12/19 02:20:36;;;;;;;;;;;;;;;;;;1882780;28;7014;-63
2022/12/19 02:21:52;;;;;;;;;;;;;;;;;;1882857;28;7034;-62
2022/12/19 02:23:11;;;;;;;;;;;;;;;;;;1882349;28;7002;-63
2022/12/19 02:24:29;;;;;;;;;;;;;;;;;;1881988;28;7244;-61
2022/12/19 02:25:34;;;;;;;;;;;;;;;;;;1881494;28;7034;-63
2022/12/19 02:26:50;;;;;;;;;;;;;;;;;;1882746;28;7006;-63
2022/12/19 02:28:00;;;;;;;;;;;;;;;;;;1883021;28;7267;-62
2022/12/19 02:29:16;;;;;;;;;;;;;;;;;;1882533;28;7089;-62
2022/12/19 02:30:37;;;;;;;;;;;;;;;;;;1882696;28;7113;-63
2022/12/19 02:31:42;;;;;;;;;;;;;;;;;;1874781;28;7069;-62
2022/12/19 02:32:47;;;;;;;;;;;;;;;;;;1881819;28;7092;-61
2022/12/19 02:33:45;;;;;;;;;;;;;;;;;;1883458;28;7272;-63
2022/12/19 02:35:07;;;;;;;;;;;;;;;;;;1882777;28;7006;-63
2022/12/19 02:36:16;;;;;;;;;;;;;;;;;;1882212;28;7002;-61
2022/12/19 02:37:19;;;;;;;;;;;;;;;;;;1882900;28;7325;-61
2022/12/19 02:38:25;;;;;;;;;;;;;;;;;;1882687;28;7006;-63
2022/12/19 02:39:25;;;;;;;;;;;;;;;;;;1875151;28;7086;-63
2022/12/19 02:40:34;;;;;;;;;;;;;;;;;;1874833;28;7310;-63
2022/12/19 02:41:44;;;;;;;;;;;;;;;;;;1882780;28;9649;-62
2022/12/19 02:42:44;;;;;;;;;;;;;;;;;;1881200;28;7153;-61
2022/12/19 02:43:47;;;;;;;;;;;;;;;;;;1882719;28;7127;-63
2022/12/19 02:44:51;;;;;;;;;;;;;;;;;;1882487;28;7071;-63
2022/12/19 02:45:50;;;;;;;;;;;;;;;;;;1882937;28;7034;-62
2022/12/19 02:46:49;;;;;;;;;;;;;;;;;;1881274;28;7041;-63
2022/12/19 02:47:47;;;;;;;;;;;;;;;;;;1882775;28;7229;-63
2022/12/19 02:48:46;;;;;;;;;;;;;;;;;;1882433;28;7089;-62
2022/12/19 02:49:43;;;;;;;;;;;;;;;;;;1882802;28;7089;-63
2022/12/19 02:50:43;;;;;;;;;;;;;;;;;;1882676;28;7006;-62
2022/12/19 02:51:41;;;;;;;;;;;;;;;;;;1882639;28;7009;-62
2022/12/19 02:52:39;;;;;;;;;;;;;;;;;;1882341;28;7042;-61
2022/12/19 02:53:37;;;;;;;;;;;;;;;;;;1882858;28;7009;-62
2022/12/19 02:54:35;;;;;;;;;;;;;;;;;;1882379;28;7010;-62
2022/12/19 02:55:42;;;;;;;;;;;;;;;;;;1882561;28;7097;-64
2022/12/19 02:56:39;;;;;;;;;;;;;;;;;;1881767;28;7305;-63
2022/12/19 02:57:55;;;;;;;;;;;;;;;;;;1881370;28;8079;-63
2022/12/19 02:59:13;;;;;;;;;;;;;;;;;;1882434;28;7014;-63
2022/12/19 03:00:10;;;;;;;;;;;;;;;;;;1878541;28;7005;-63
2022/12/19 03:01:24;;;;;;;;;;;;;;;;;;1882712;28;7057;-64
2022/12/19 03:02:41;;;;;;;;;;;;;;;;;;1881719;28;7139;-62
2022/12/19 03:03:42;;;;;;;;;;;;;;;;;;1882229;28;7249;-63
2022/12/19 03:04:39;;;;;;;;;;;;;;;;;;1882375;28;7195;-62
2022/12/19 03:05:55;;;;;;;;;;;;;;;;;;1882422;28;7068;-64
2022/12/19 03:07:00;;;;;;;;;;;;;;;;;;1881333;28;7093;-64
2022/12/19 03:07:58;;;;;;;;;;;;;;;;;;1881030;28;7134;-64
2022/12/19 03:09:08;;;;;;;;;;;;;;;;;;1882531;28;7111;-63
2022/12/19 03:10:15;;;;;;;;;;;;;;;;;;1882233;28;7046;-61
2022/12/19 03:11:14;;;;;;;;;;;;;;;;;;1882115;28;7297;-63
2022/12/19 03:12:17;;;;;;;;;;;;;;;;;;1882422;28;7374;-61
2022/12/19 03:13:21;;;;;;;;;;;;;;;;;;1882115;28;7006;-62
2022/12/19 03:14:20;;;;;;;;;;;;;;;;;;1881803;28;7034;-63
2022/12/19 03:15:19;;;;;;;;;;;;;;;;;;1882076;28;7216;-62
2022/12/19 03:16:17;;;;;;;;;;;;;;;;;;1881945;28;8764;-62
2022/12/19 03:17:18;;;;;;;;;;;;;;;;;;1882835;28;7005;-64
2022/12/19 03:18:16;;;;;;;;;;;;;;;;;;1882772;28;7248;-61
2022/12/19 03:19:15;;;;;;;;;;;;;;;;;;1882740;28;7081;-63
2022/12/19 03:20:21;;;;;;;;;;;;;;;;;;1881146;28;8020;-62
2022/12/19 03:21:21;;;;;;;;;;;;;;;;;;1881449;28;7364;-64
2022/12/19 03:22:19;;;;;;;;;;;;;;;;;;1882061;28;8020;-62
2022/12/19 03:23:17;;;;;;;;;;;;;;;;;;1882530;28;7034;-63
2022/12/19 03:24:16;;;;;;;;;;;;;;;;;;1881692;28;7134;-64
2022/12/19 03:25:14;;;;;;;;;;;;;;;;;;1882159;28;7010;-63
2022/12/19 03:26:16;;;;;;;;;;;;;;;;;;1881605;28;7196;-63
2022/12/19 03:27:19;;;;;;;;;;;;;;;;;;1882183;28;7014;-64
2022/12/19 03:28:21;;;;;;;;;;;;;;;;;;1881656;28;7014;-62
2022/12/19 03:29:31;;;;;;;;;;;;;;;;;;1882375;28;7101;-61
2022/12/19 03:30:31;;;;;;;;;;;;;;;;;;1882354;28;7365;-64
2022/12/19 03:31:32;;;;;;;;;;;;;;;;;;1881489;28;7135;-61
2022/12/19 03:32:31;;;;;;;;;;;;;;;;;;1882132;28;7006;-62
2022/12/19 03:33:31;;;;;;;;;;;;;;;;;;1884562;28;7036;-63
2022/12/19 03:34:33;;;;;;;;;;;;;;;;;;1887006;28;7009;-61
2022/12/19 03:35:34;;;;;;;;;;;;;;;;;;1874811;28;8002;-62
2022/12/19 03:36:37;;;;;;;;;;;;;;;;;;1867795;29;10536;-63
2022/12/19 03:37:39;;;;;;;;;;;;;;;;;;1873932;28;7018;-61
2022/12/19 03:38:39;;;;;;;;;;;;;;;;;;1881317;28;8940;-61
2022/12/19 03:39:40;;;;;;;;;;;;;;;;;;1881550;28;7002;-62
2022/12/19 03:40:39;;;;;;;;;;;;;;;;;;1882796;28;7005;-63
2022/12/19 03:43:09;;;;;;;;;;;;;;;;;;1882483;28;7216;-63
2022/12/19 03:44:10;;;;;;;;;;;;;;;;;;1882392;28;7034;-61
2022/12/19 03:45:10;;;;;;;;;;;;;;;;;;1881610;28;7196;-64
2022/12/19 03:46:20;;;;;;;;;;;;;;;;;;1882095;28;7014;-63
2022/12/19 03:47:23;;;;;;;;;;;;;;;;;;1882334;28;7022;-63
2022/12/19 03:48:20;;;;;;;;;;;;;;;;;;1882381;28;7006;-64
2022/12/19 03:49:18;;;;;;;;;;;;;;;;;;1881934;28;7356;-63
2022/12/19 03:50:16;;;;;;;;;;;;;;;;;;1882560;28;7219;-62
2022/12/19 03:51:19;;;;;;;;;;;;;;;;;;1882434;28;7002;-64
2022/12/19 03:52:32;;;;;;;;;;;;;;;;;;1882117;28;7033;-64
2022/12/19 03:53:30;;;;;;;;;;;;;;;;;;1881997;28;7326;-62
2022/12/19 03:54:36;;;;;;;;;;;;;;;;;;1881833;28;7010;-62
2022/12/19 03:55:56;;;;;;;;;;;;;;;;;;1881631;28;7143;-64
2022/12/19 03:56:59;;;;;;;;;;;;;;;;;;1878696;28;7006;-62
2022/12/19 03:58:09;;;;;;;;;;;;;;;;;;1880918;28;7127;-62
2022/12/19 03:59:28;;;;;;;;;;;;;;;;;;1882201;28;7046;-64
2022/12/19 04:00:27;;;;;;;;;;;;;;;;;;1881897;28;7328;-63
2022/12/19 04:01:27;;;;;;;;;;;;;;;;;;1882201;28;7866;-62
2022/12/19 04:02:26;;;;;;;;;;;;;;;;;;1880893;28;7331;-63
2022/12/19 04:03:24;;;;;;;;;;;;;;;;;;1882294;28;7117;-63
2022/12/19 04:04:24;;;;;;;;;;;;;;;;;;1881969;28;7014;-61
2022/12/19 04:05:24;;;;;;;;;;;;;;;;;;1881819;28;7089;-64
2022/12/19 04:06:22;;;;;;;;;;;;;;;;;;1882429;28;7266;-61
2022/12/19 04:07:22;;;;;;;;;;;;;;;;;;1882752;28;7125;-64
2022/12/19 04:08:20;;;;;;;;;;;;;;;;;;1881108;28;7088;-62
2022/12/19 04:09:20;;;;;;;;;;;;;;;;;;1882017;28;7302;-64
2022/12/19 04:10:23;;;;;;;;;;;;;;;;;;1882041;28;7138;-63
2022/12/19 04:11:23;;;;;;;;;;;;;;;;;;1881280;28;7042;-64
2022/12/19 04:12:25;;;;;;;;;;;;;;;;;;1881519;28;7093;-62
2022/12/19 04:13:32;;;;;;;;;;;;;;;;;;1881346;28;7113;-63
2022/12/19 04:14:32;;;;;;;;;;;;;;;;;;1881040;28;7006;-63
2022/12/19 04:15:54;;;;;;;;;;;;;;;;;;1882307;28;7042;-61
2022/12/19 04:17:01;;;;;;;;;;;;;;;;;;1882591;28;8344;-64
2022/12/19 04:18:04;;;;;;;;;;;;;;;;;;1882660;28;7639;-62
2022/12/19 04:19:08;;;;;;;;;;;;;;;;;;1883106;28;7092;-62
2022/12/19 04:20:11;;;;;;;;;;;;;;;;;;1882241;28;7014;-64
2022/12/19 04:21:28;;;;;;;;;;;;;;;;;;1883685;28;7268;-61
2022/12/19 04:22:31;;;;;;;;;;;;;;;;;;1882103;28;7014;-63
2022/12/19 04:23:36;;;;;;;;;;;;;;;;;;1883332;28;7135;-63
2022/12/19 04:24:36;;;;;;;;;;;;;;;;;;1883492;28;7117;-64
2022/12/19 04:25:36;;;;;;;;;;;;;;;;;;1883278;28;7013;-62
2022/12/19 04:26:36;;;;;;;;;;;;;;;;;;1882650;28;7067;-64
2022/12/19 04:27:36;;;;;;;;;;;;;;;;;;1883591;28;8036;-64
2022/12/19 04:28:46;;;;;;;;;;;;;;;;;;1884177;28;7113;-62
2022/12/19 04:29:45;;;;;;;;;;;;;;;;;;1883993;28;7026;-63
2022/12/19 04:30:44;;;;;;;;;;;;;;;;;;1882712;28;7300;-62
2022/12/19 04:31:43;;;;;;;;;;;;;;;;;;1883419;28;7137;-63
2022/12/19 04:32:41;;;;;;;;;;;;;;;;;;1884195;28;7046;-62
2022/12/19 04:33:38;;;;;;;;;;;;;;;;;;1883515;28;7026;-62
2022/12/19 04:34:36;;;;;;;;;;;;;;;;;;1883431;28;7097;-63
2022/12/19 04:35:39;;;;;;;;;;;;;;;;;;1883453;28;7005;-62
2022/12/19 04:36:36;;;;;;;;;;;;;;;;;;1883801;28;8048;-63
2022/12/19 04:37:34;;;;;;;;;;;;;;;;;;1883749;28;7026;-62
2022/12/19 04:38:31;;;;;;;;;;;;;;;;;;1883358;28;7157;-62
2022/12/19 04:39:29;;;;;;;;;;;;;;;;;;1883611;28;7006;-62
2022/12/19 04:40:27;;;;;;;;;;;;;;;;;;1883767;28;7109;-62
2022/12/19 04:41:24;;;;;;;;;;;;;;;;;;1882983;28;7106;-60
2022/12/19 04:42:21;;;;;;;;;;;;;;;;;;1883660;28;7006;-64
2022/12/19 04:43:19;;;;;;;;;;;;;;;;;;1882387;28;7029;-63
2022/12/19 04:44:16;;;;;;;;;;;;;;;;;;1883508;28;7002;-64
2022/12/19 04:45:14;;;;;;;;;;;;;;;;;;1883494;28;7002;-62
2022/12/19 04:46:11;;;;;;;;;;;;;;;;;;1883237;28;7013;-61
2022/12/19 04:47:09;;;;;;;;;;;;;;;;;;1883006;28;7296;-64
2022/12/19 04:48:06;;;;;;;;;;;;;;;;;;1883165;28;7001;-63
2022/12/19 04:49:05;;;;;;;;;;;;;;;;;;1883533;28;7109;-64
2022/12/19 04:50:03;;;;;;;;;;;;;;;;;;1883009;28;7042;-63
2022/12/19 04:51:00;;;;;;;;;;;;;;;;;;1883550;28;8112;-63
2022/12/19 04:51:57;;;;;;;;;;;;;;;;;;1883464;28;7005;-63
2022/12/19 04:52:55;;;;;;;;;;;;;;;;;;1883139;28;7092;-63
2022/12/19 04:53:53;;;;;;;;;;;;;;;;;;1882761;28;7042;-62
2022/12/19 04:54:51;;;;;;;;;;;;;;;;;;1882242;28;7041;-62
2022/12/19 04:55:48;;;;;;;;;;;;;;;;;;1883154;28;7046;-63
2022/12/19 04:56:45;;;;;;;;;;;;;;;;;;1883359;28;7209;-63
2022/12/19 04:57:43;;;;;;;;;;;;;;;;;;1883688;28;7175;-62
2022/12/19 04:58:40;;;;;;;;;;;;;;;;;;1883096;28;7002;-62
2022/12/19 04:59:38;;;;;;;;;;;;;;;;;;1883259;28;7121;-63
2022/12/19 05:00:35;;;;;;;;;;;;;;;;;;1874857;28;7047;-63
2022/12/19 05:01:33;;;;;;;;;;;;;;;;;;1875563;28;7006;-62
2022/12/19 05:02:30;;;;;;;;;;;;;;;;;;1881398;28;8615;-63
2022/12/19 05:03:28;;;;;;;;;;;;;;;;;;1883511;28;7006;-62
2022/12/19 05:04:26;;;;;;;;;;;;;;;;;;1883296;28;7333;-62
2022/12/19 05:05:23;;;;;;;;;;;;;;;;;;1883629;28;7096;-63
2022/12/19 05:06:21;;;;;;;;;;;;;;;;;;1883372;28;8237;-63
2022/12/19 05:07:19;;;;;;;;;;;;;;;;;;1883071;28;7201;-63
2022/12/19 05:08:16;;;;;;;;;;;;;;;;;;1881574;28;7101;-63
2022/12/19 05:09:14;;;;;;;;;;;;;;;;;;1881669;28;7013;-64
2022/12/19 05:10:11;;;;;;;;;;;;;;;;;;1883293;28;7014;-63
2022/12/19 05:11:11;;;;;;;;;;;;;;;;;;1883492;28;7046;-62
2022/12/19 05:12:15;;;;;;;;;;;;;;;;;;1883587;28;7117;-63
2022/12/19 05:13:12;;;;;;;;;;;;;;;;;;1883462;28;7013;-62
2022/12/19 05:14:10;;;;;;;;;;;;;;;;;;1883392;28;7030;-63
2022/12/19 05:15:08;;;;;;;;;;;;;;;;;;1883345;28;7125;-62
2022/12/19 05:16:07;;;;;;;;;;;;;;;;;;1883220;28;7231;-63
2022/12/19 05:17:05;;;;;;;;;;;;;;;;;;1882829;28;7026;-63
2022/12/19 05:18:02;;;;;;;;;;;;;;;;;;1875161;28;7022;-63
2022/12/19 05:19:00;;;;;;;;;;;;;;;;;;1875214;28;7026;-61
2022/12/19 05:19:57;;;;;;;;;;;;;;;;;;1882966;28;7014;-61
2022/12/19 05:20:55;;;;;;;;;;;;;;;;;;1883402;28;7096;-63
2022/12/19 05:21:52;;;;;;;;;;;;;;;;;;1883257;28;7018;-61
2022/12/19 05:22:50;;;;;;;;;;;;;;;;;;1883287;28;7009;-63
2022/12/19 05:23:48;;;;;;;;;;;;;;;;;;1882989;28;7010;-61
2022/12/19 05:24:46;;;;;;;;;;;;;;;;;;1883079;28;7046;-60
2022/12/19 05:25:43;;;;;;;;;;;;;;;;;;1882556;28;7039;-63
2022/12/19 05:26:40;;;;;;;;;;;;;;;;;;1883547;28;7127;-62
2022/12/19 05:27:38;;;;;;;;;;;;;;;;;;1883271;28;7033;-64
2022/12/19 05:28:35;;;;;;;;;;;;;;;;;;1882883;28;8052;-62
2022/12/19 05:29:33;;;;;;;;;;;;;;;;;;1882918;28;7018;-62
2022/12/19 05:30:31;;;;;;;;;;;;;;;;;;1881382;28;7097;-63
2022/12/19 05:31:28;;;;;;;;;;;;;;;;;;1875050;28;7114;-61
2022/12/19 05:32:28;;;;;;;;;;;;;;;;;;1875480;28;7113;-63
2022/12/19 05:33:27;;;;;;;;;;;;;;;;;;1882968;28;7021;-63
2022/12/19 05:34:24;;;;;;;;;;;;;;;;;;1883775;28;7006;-61
2022/12/19 05:35:22;;;;;;;;;;;;;;;;;;1882954;28;7199;-61
2022/12/19 05:36:19;;;;;;;;;;;;;;;;;;1882790;28;7006;-61
2022/12/19 05:37:16;;;;;;;;;;;;;;;;;;1883046;28;7006;-61
2022/12/19 05:38:14;;;;;;;;;;;;;;;;;;1883444;28;7010;-62
2022/12/19 05:39:11;;;;;;;;;;;;;;;;;;1883801;28;8105;-62
2022/12/19 05:40:09;;;;;;;;;;;;;;;;;;1882062;28;7121;-61
2022/12/19 05:41:08;;;;;;;;;;;;;;;;;;1882837;28;7257;-62
2022/12/19 05:42:05;;;;;;;;;;;;;;;;;;1882851;28;7010;-63
2022/12/19 05:43:08;;;;;;;;;;;;;;;;;;1883879;28;7002;-62
2022/12/19 05:44:05;;;;;;;;;;;;;;;;;;1883294;28;7090;-64
2022/12/19 05:45:03;;;;;;;;;;;;;;;;;;1883512;28;8008;-63
2022/12/19 05:46:00;;;;;;;;;;;;;;;;;;1882807;28;7034;-61
2022/12/19 05:46:58;;;;;;;;;;;;;;;;;;1882631;28;7096;-62
2022/12/19 05:47:55;;;;;;;;;;;;;;;;;;1883493;28;7352;-62
2022/12/19 05:48:58;;;;;;;;;;;;;;;;;;1883157;28;7440;-62
2022/12/19 05:49:56;;;;;;;;;;;;;;;;;;1882555;28;7092;-63
2022/12/19 05:50:53;;;;;;;;;;;;;;;;;;1884015;28;7046;-63
2022/12/19 05:51:50;;;;;;;;;;;;;;;;;;1883538;28;7010;-62
2022/12/19 05:52:48;;;;;;;;;;;;;;;;;;1883009;28;7093;-63
2022/12/19 05:53:46;;;;;;;;;;;;;;;;;;1875579;28;8882;-63
2022/12/19 05:54:43;;;;;;;;;;;;;;;;;;1875262;28;7408;-61
2022/12/19 05:55:40;;;;;;;;;;;;;;;;;;1882957;28;7046;-61
2022/12/19 05:56:38;;;;;;;;;;;;;;;;;;1883073;28;7121;-61
2022/12/19 05:57:35;;;;;;;;;;;;;;;;;;1883110;28;7082;-61
2022/12/19 05:58:33;;;;;;;;;;;;;;;;;;1882610;28;8143;-62
2022/12/19 05:59:30;;;;;;;;;;;;;;;;;;1883461;28;7088;-64
2022/12/19 06:00:28;;;;;;;;;;;;;;;;;;1882894;28;7122;-66
2022/12/19 06:01:26;;;;;;;;;;;;;;;;;;1882875;28;7006;-64
2022/12/19 06:02:24;;;;;;;;;;;;;;;;;;1875423;28;9561;-64
2022/12/19 06:03:22;;;;;;;;;;;;;;;;;;1875159;28;7100;-64
2022/12/19 06:04:19;;;;;;;;;;;;;;;;;;1881848;28;7105;-64
2022/12/19 06:05:17;;;;;;;;;;;;;;;;;;1882696;28;7101;-63
2022/12/19 06:06:16;;;;;;;;;;;;;;;;;;1883394;28;7042;-63
2022/12/19 06:07:13;;;;;;;;;;;;;;;;;;1882430;28;7009;-64
2022/12/19 06:08:17;;;;;;;;;;;;;;;;;;1882521;28;8205;-65
2022/12/19 06:09:14;;;;;;;;;;;;;;;;;;1875041;28;7006;-63
2022/12/19 06:10:11;;;;;;;;;;;;;;;;;;1875672;28;7002;-63
2022/12/19 06:11:10;;;;;;;;;;;;;;;;;;1881982;28;7026;-65
2022/12/19 06:12:07;;;;;;;;;;;;;;;;;;1882375;28;7010;-64
2022/12/19 06:13:05;;;;;;;;;;;;;;;;;;1874889;28;7109;-64
2022/12/19 06:14:02;;;;;;;;;;;;;;;;;;1875327;28;7042;-63
2022/12/19 06:15:00;;;;;;;;;;;;;;;;;;1881717;28;7006;-64
2022/12/19 06:16:02;;;;;;;;;;;;;;;;;;1882821;28;7038;-65
2022/12/19 06:17:00;;;;;;;;;;;;;;;;;;1882227;28;7305;-65
2022/12/19 06:17:57;;;;;;;;;;;;;;;;;;1883260;28;7123;-63
2022/12/19 06:18:55;;;;;;;;;;;;;;;;;;1883100;28;7010;-63
2022/12/19 06:19:52;;;;;;;;;;;;;;;;;;1882809;28;7006;-64
2022/12/19 06:21:00;;;;;;;;;;;;;;;;;;1883224;28;7131;-62
2022/12/19 06:21:57;;;;;;;;;;;;;;;;;;1882678;28;7130;-62
2022/12/19 06:22:55;;;;;;;;;;;;;;;;;;1883666;28;7109;-65
2022/12/19 06:23:53;;;;;;;;;;;;;;;;;;1883171;28;7224;-65
2022/12/19 06:24:51;;;;;;;;;;;;;;;;;;1883041;28;8365;-64
2022/12/19 06:25:48;;;;;;;;;;;;;;;;;;1883171;28;7006;-63
2022/12/19 06:26:46;;;;;;;;;;;;;;;;;;1881535;28;7259;-64
2022/12/19 06:27:43;;;;;;;;;;;;;;;;;;1885307;28;7117;-63
2022/12/19 06:28:40;;;;;;;;;;;;;;;;;;1884642;28;7313;-64
2022/12/19 06:29:38;;;;;;;;;;;;;;;;;;1883103;28;7122;-64
2022/12/19 06:30:35;;;;;;;;;;;;;;;;;;1882747;28;7101;-63
2022/12/19 06:31:33;;;;;;;;;;;;;;;;;;1883085;28;7068;-64
2022/12/19 06:32:32;;;;;;;;;;;;;;;;;;1883556;28;7006;-62
2022/12/19 06:33:34;;;;;;;;;;;;;;;;;;1883479;28;7010;-63
2022/12/19 06:34:32;;;;;;;;;;;;;;;;;;1883050;28;7009;-64
2022/12/19 06:35:59;;;;;;;;;;;;;;;;;;1882832;28;7088;-63
2022/12/19 06:36:56;;;;;;;;;;;;;;;;;;1882544;28;7130;-64
2022/12/19 06:37:54;;;;;;;;;;;;;;;;;;1882021;28;7002;-65
2022/12/19 06:38:57;;;;;;;;;;;;;;;;;;1883627;28;8039;-63
2022/12/19 06:39:55;;;;;;;;;;;;;;;;;;1883082;28;7131;-63
2022/12/19 06:42:23;;;;;;;;;;;;;;;;;;1882214;28;7010;-63
2022/12/19 06:43:24;;;;;;;;;;;;;;;;;;1882784;28;7137;-64
2022/12/19 06:44:21;;;;;;;;;;;;;;;;;;1882932;28;7337;-62
2022/12/19 06:45:18;;;;;;;;;;;;;;;;;;1882431;28;7117;-63
2022/12/19 06:46:16;;;;;;;;;;;;;;;;;;1882946;28;7089;-62
2022/12/19 06:47:13;;;;;;;;;;;;;;;;;;1882791;28;8186;-64
2022/12/19 06:48:10;;;;;;;;;;;;;;;;;;1883213;28;7002;-65
2022/12/19 06:49:08;;;;;;;;;;;;;;;;;;1883121;28;7117;-63
2022/12/19 06:50:06;;;;;;;;;;;;;;;;;;1882990;28;7006;-64
2022/12/19 06:51:03;;;;;;;;;;;;;;;;;;1882913;28;7026;-63
2022/12/19 06:52:01;;;;;;;;;;;;;;;;;;1882896;28;7636;-64
2022/12/19 06:53:05;;;;;;;;;;;;;;;;;;1882565;28;7002;-63
2022/12/19 06:54:03;;;;;;;;;;;;;;;;;;1882590;28;7006;-64
2022/12/19 06:55:00;;;;;;;;;;;;;;;;;;1882884;28;7097;-65
2022/12/19 06:55:58;;;;;;;;;;;;;;;;;;1883125;28;7089;-65
2022/12/19 06:56:56;;;;;;;;;;;;;;;;;;1883011;28;7006;-65
2022/12/19 06:57:54;;;;;;;;;;;;;;;;;;1882783;28;7110;-63
2022/12/19 06:58:51;;;;;;;;;;;;;;;;;;1882838;28;7006;-63
2022/12/19 06:59:48;;;;;;;;;;;;;;;;;;1882851;28;7077;-65
2022/12/19 07:00:47;;;;;;;;;;;;;;;;;;1882936;28;7046;-63
2022/12/19 07:01:55;;;;;;;;;;;;;;;;;;1882633;28;7006;-62
2022/12/19 07:02:55;;;;;;;;;;;;;;;;;;1882734;28;7010;-63